createdAt,value
2022-10-04T00:01:09.166Z,9.40
2022-10-04T00:03:43.378Z,9.40
2022-10-04T00:06:18.499Z,9.40
2022-10-04T00:08:51.015Z,9.40
2022-10-04T00:11:26.611Z,9.40
2022-10-04T00:13:58.518Z,9.50
2022-10-04T00:16:32.281Z,9.50
2022-10-04T00:19:24.433Z,9.50
2022-10-04T00:22:25.074Z,9.50
2022-10-04T00:25:20.547Z,9.60
2022-10-04T00:28:25.660Z,9.50
2022-10-04T00:31:16.933Z,9.50
2022-10-04T00:33:46.538Z,9.50
2022-10-04T00:36:45.549Z,9.50
2022-10-04T00:39:37.067Z,9.50
2022-10-04T00:42:32.746Z,9.50
2022-10-04T00:45:03.595Z,9.40
2022-10-04T00:47:36.682Z,9.30
2022-10-04T00:50:16.854Z,9.30
2022-10-04T00:52:51.165Z,9.30
2022-10-04T00:55:26.104Z,9.20
2022-10-04T00:57:59.533Z,9.20
2022-10-04T01:00:31.434Z,9.20
2022-10-04T01:03:06.749Z,9.20
2022-10-04T01:05:37.493Z,9.10
2022-10-04T01:08:10.038Z,9.20
2022-10-04T01:10:43.345Z,9.20
2022-10-04T01:13:15.049Z,9.20
2022-10-04T01:15:46.537Z,9.30
2022-10-04T01:18:17.734Z,9.30
2022-10-04T01:20:56.289Z,9.20
2022-10-04T01:23:37.833Z,9.30
2022-10-04T01:26:07.156Z,9.20
2022-10-04T01:28:36.220Z,9.30
2022-10-04T01:31:04.501Z,9.30
2022-10-04T01:33:32.676Z,9.20
2022-10-04T01:36:00.873Z,9.20
2022-10-04T01:38:29.058Z,9.30
2022-10-04T01:41:03.592Z,9.30
2022-10-04T01:43:37.611Z,9.30
2022-10-04T01:46:11.525Z,9.30
2022-10-04T01:48:44.546Z,9.30
2022-10-04T01:51:19.343Z,9.30
2022-10-04T01:53:51.911Z,9.20
2022-10-04T01:56:26.516Z,9.30
2022-10-04T01:58:59.608Z,9.20
2022-10-04T02:01:39.799Z,9.20
2022-10-04T02:04:22.549Z,9.10
2022-10-04T02:06:54.268Z,9.10
2022-10-04T02:09:25.993Z,9.00
2022-10-04T02:11:58.372Z,9.00
2022-10-04T02:14:29.399Z,9.00
2022-10-04T02:16:57.631Z,9.00
2022-10-04T02:19:28.514Z,9.00
2022-10-04T02:21:57.192Z,9.00
2022-10-04T02:24:25.433Z,9.00
2022-10-04T02:26:55.275Z,9.10
2022-10-04T02:29:23.560Z,9.10
2022-10-04T02:32:10.436Z,9.10
2022-10-04T02:34:40.749Z,9.10
2022-10-04T02:37:10.210Z,9.10
2022-10-04T02:39:41.989Z,9.10
2022-10-04T02:42:18.268Z,9.10
2022-10-04T02:44:52.791Z,9.20
2022-10-04T02:47:23.888Z,9.10
2022-10-04T02:49:55.458Z,9.10
2022-10-04T02:52:27.618Z,9.00
2022-10-04T02:55:02.783Z,9.00
2022-10-04T02:57:34.897Z,9.00
2022-10-04T03:00:11.998Z,9.00
2022-10-04T03:02:40.651Z,9.00
2022-10-04T03:05:13.416Z,9.00
2022-10-04T03:07:41.987Z,9.00
2022-10-04T03:10:12.470Z,9.00
2022-10-04T03:12:42.384Z,9.00
2022-10-04T03:15:13.196Z,9.00
2022-10-04T03:17:42.588Z,9.00
2022-10-04T03:20:16.135Z,9.00
2022-10-04T03:22:47.352Z,9.00
2022-10-04T03:25:19.671Z,8.90
2022-10-04T03:27:50.774Z,8.90
2022-10-04T03:30:20.724Z,8.90
2022-10-04T03:32:49.526Z,8.90
2022-10-04T03:35:27.165Z,9.00
2022-10-04T03:37:57.289Z,9.00
2022-10-04T03:40:28.816Z,9.00
2022-10-04T03:43:00.237Z,9.00
2022-10-04T03:45:29.959Z,9.00
2022-10-04T03:48:07.158Z,9.00
2022-10-04T03:50:39.342Z,9.10
2022-10-04T03:53:13.195Z,9.10
2022-10-04T03:55:43.670Z,9.20
2022-10-04T03:58:15.230Z,9.20
2022-10-04T04:00:47.054Z,9.20
2022-10-04T04:03:20.484Z,9.20
2022-10-04T04:05:53.340Z,9.20
2022-10-04T04:08:29.501Z,9.30
2022-10-04T04:11:00.552Z,9.20
2022-10-04T04:13:39.694Z,9.30
2022-10-04T04:16:10.662Z,9.30
2022-10-04T04:18:43.328Z,9.30
2022-10-04T04:21:15.369Z,9.30
2022-10-04T04:23:48.829Z,9.30
2022-10-04T04:26:25.324Z,9.30
2022-10-04T04:28:57.770Z,9.30
2022-10-04T04:31:28.967Z,9.40
2022-10-04T04:34:00.734Z,9.30
2022-10-04T04:36:30.545Z,9.30
2022-10-04T04:39:26.705Z,9.40
2022-10-04T04:41:55.045Z,9.40
2022-10-04T04:44:24.913Z,9.40
2022-10-04T04:46:53.663Z,9.40
2022-10-04T04:49:22.712Z,9.40
2022-10-04T04:51:52.699Z,9.50
2022-10-04T04:54:24.951Z,9.50
2022-10-04T04:56:55.337Z,9.70
2022-10-04T04:59:28.162Z,9.50
2022-10-04T05:01:56.323Z,9.50
2022-10-04T05:04:26.311Z,9.50
2022-10-04T05:07:03.126Z,9.60
2022-10-04T05:09:33.184Z,9.60
2022-10-04T05:12:08.764Z,9.60
2022-10-04T05:14:41.175Z,9.60
2022-10-04T05:17:09.438Z,9.60
2022-10-04T05:19:40.324Z,9.60
2022-10-04T05:22:11.589Z,9.70
2022-10-04T05:24:43.403Z,9.60
2022-10-04T05:27:18.227Z,9.60
2022-10-04T05:29:58.877Z,9.70
2022-10-04T05:32:34.822Z,9.70
2022-10-04T05:35:03.239Z,9.70
2022-10-04T05:37:53.393Z,9.70
2022-10-04T05:40:35.232Z,9.70
2022-10-04T05:43:03.937Z,9.80
2022-10-04T05:45:33.490Z,9.80
2022-10-04T05:48:03.069Z,9.80
2022-10-04T05:50:37.234Z,9.80
2022-10-04T05:53:24.436Z,9.90
2022-10-04T05:56:01.747Z,9.90
2022-10-04T05:58:53.806Z,9.90
2022-10-04T06:01:37.221Z,9.90
2022-10-04T06:04:25.199Z,9.90
2022-10-04T06:06:59.868Z,9.90
2022-10-04T06:09:53.508Z,10.00
2022-10-04T06:12:33.734Z,10.00
2022-10-04T06:15:16.036Z,10.10
2022-10-04T06:18:09.129Z,10.00
2022-10-04T06:21:06.891Z,10.10
2022-10-04T06:23:38.026Z,10.20
2022-10-04T06:26:11.089Z,10.30
2022-10-04T06:28:43.105Z,10.30
2022-10-04T06:31:47.765Z,10.40
2022-10-04T06:34:49.361Z,10.50
2022-10-04T06:37:32.982Z,10.60
2022-10-04T06:40:30.246Z,10.60
2022-10-04T06:43:22.305Z,10.70
2022-10-04T06:46:07.064Z,10.70
2022-10-04T06:49:08.291Z,10.60
2022-10-04T06:52:02.305Z,10.70
2022-10-04T06:54:48.019Z,10.60
2022-10-04T06:57:42.705Z,10.60
2022-10-04T07:00:15.762Z,10.60
2022-10-04T07:02:47.864Z,10.60
2022-10-04T07:05:25.108Z,10.60
2022-10-04T07:08:07.490Z,10.60
2022-10-04T07:10:49.650Z,10.60
2022-10-04T07:13:33.247Z,10.60
2022-10-04T07:16:06.706Z,10.70
2022-10-04T07:18:39.138Z,10.70
2022-10-04T07:21:11.093Z,10.80
2022-10-04T07:23:47.005Z,10.80
2022-10-04T07:26:24.611Z,10.90
2022-10-04T07:29:14.528Z,10.90
2022-10-04T07:31:44.772Z,11.00
2022-10-04T07:34:18.547Z,11.40
2022-10-04T07:36:51.006Z,11.80
2022-10-04T07:39:26.137Z,12.50
2022-10-04T07:41:57.584Z,12.70
2022-10-04T07:44:36.981Z,12.70
2022-10-04T07:47:14.768Z,12.80
2022-10-04T07:49:43.006Z,12.80
2022-10-04T07:52:26.199Z,12.70
2022-10-04T07:55:02.192Z,12.70
2022-10-04T07:57:39.642Z,12.70
2022-10-04T08:00:16.915Z,12.90
2022-10-04T08:03:05.036Z,13.00
2022-10-04T08:05:38.703Z,13.00
2022-10-04T08:08:24.387Z,13.00
2022-10-04T08:11:05.357Z,13.20
2022-10-04T08:13:43.077Z,13.30
2022-10-04T08:16:27.700Z,13.30
2022-10-04T08:19:12.719Z,13.10
2022-10-04T08:21:49.186Z,13.20
2022-10-04T08:24:24.942Z,13.20
2022-10-04T08:27:25.425Z,13.30
2022-10-04T08:30:05.484Z,13.20
2022-10-04T08:32:55.819Z,13.50
2022-10-04T08:35:36.428Z,13.50
2022-10-04T08:38:33.867Z,13.50
2022-10-04T08:41:55.411Z,13.50
2022-10-04T08:45:03.178Z,13.60
2022-10-04T08:48:08.288Z,13.50
2022-10-04T08:51:02.856Z,13.40
2022-10-04T08:54:30.633Z,13.20
2022-10-04T08:57:21.125Z,13.20
2022-10-04T09:30:19.815Z,12.90
2022-10-04T09:33:26.517Z,13.00
2022-10-04T10:48:43.969Z,14.70
2022-10-04T11:04:01.933Z,14.60
2022-10-04T11:07:04.621Z,14.50
2022-10-04T11:09:52.744Z,14.30
2022-10-04T11:12:57.228Z,14.20
2022-10-04T11:15:41.518Z,14.00
2022-10-04T11:18:30.582Z,13.90
2022-10-04T11:21:43.701Z,13.90
2022-10-04T11:24:48.025Z,14.10
2022-10-04T11:27:28.617Z,14.00
2022-10-04T11:30:17.294Z,14.10
2022-10-04T11:33:21.949Z,14.20
2022-10-04T11:36:32.556Z,14.30
2022-10-04T11:39:20.175Z,14.30
2022-10-04T11:41:56.378Z,14.20
2022-10-04T11:44:46.562Z,14.10
2022-10-04T11:47:40.408Z,14.00
2022-10-04T11:50:39.002Z,14.00
2022-10-04T11:53:39.231Z,14.40
2022-10-04T11:56:35.105Z,14.50
2022-10-04T11:59:20.361Z,14.60
2022-10-04T12:02:31.489Z,14.60
2022-10-04T12:05:27.167Z,15.10
2022-10-04T12:08:13.611Z,15.10
2022-10-04T12:10:43.309Z,15.20
2022-10-04T12:13:39.070Z,15.10
2022-10-04T12:16:41.182Z,14.90
2022-10-04T12:19:37.522Z,14.70
2022-10-04T12:22:20.270Z,14.50
2022-10-04T12:25:24.232Z,14.40
2022-10-04T12:28:27.728Z,14.30
2022-10-04T12:31:12.496Z,14.10
2022-10-04T12:33:49.579Z,14.00
2022-10-04T12:36:31.355Z,14.20
2022-10-04T12:39:16.192Z,14.30
2022-10-04T12:41:54.463Z,14.40
2022-10-04T12:44:41.064Z,14.70
2022-10-04T12:47:44.722Z,15.00
2022-10-04T12:50:26.195Z,15.00
2022-10-04T12:53:07.797Z,15.00
2022-10-04T12:55:54.401Z,14.90
2022-10-04T12:58:26.926Z,14.90
2022-10-04T13:01:02.434Z,14.90
2022-10-04T13:03:40.312Z,14.80
2022-10-04T13:06:18.273Z,14.70
2022-10-04T13:09:02.900Z,14.70
2022-10-04T13:11:54.484Z,14.80
2022-10-04T13:14:49.403Z,14.80
2022-10-04T13:17:35.681Z,14.80
2022-10-04T13:20:32.170Z,14.70
2022-10-04T13:23:05.173Z,14.60
2022-10-04T13:25:52.196Z,14.60
2022-10-04T13:28:30.822Z,14.50
2022-10-04T13:31:04.559Z,14.50
2022-10-04T13:33:44.497Z,14.50
2022-10-04T13:36:19.341Z,14.50
2022-10-04T13:39:09.465Z,14.50
2022-10-04T13:41:56.531Z,14.50
2022-10-04T13:44:48.055Z,14.40
2022-10-04T13:47:38.927Z,14.30
2022-10-04T13:50:28.083Z,14.20
2022-10-04T13:53:21.340Z,14.20
2022-10-04T13:56:18.339Z,14.30
2022-10-04T13:58:54.173Z,14.40
2022-10-04T14:01:53.776Z,14.60
2022-10-04T14:04:42.298Z,14.50
2022-10-04T14:07:35.890Z,14.40
2022-10-04T14:10:22.437Z,14.30
2022-10-04T14:13:28.037Z,14.30
2022-10-04T14:16:23.535Z,14.20
2022-10-04T14:19:39.068Z,14.20
2022-10-04T14:22:45.600Z,14.30
2022-10-04T14:25:59.298Z,14.30
2022-10-04T14:28:47.635Z,14.40
2022-10-04T14:31:43.694Z,14.50
2022-10-04T14:34:35.229Z,14.50
2022-10-04T14:37:36.508Z,14.40
2022-10-04T14:40:21.580Z,14.40
2022-10-04T14:43:21.311Z,14.30
2022-10-04T14:46:07.686Z,14.30
2022-10-04T14:48:52.338Z,14.20
2022-10-04T14:51:48.698Z,14.20
2022-10-04T14:54:29.996Z,14.20
2022-10-04T14:57:04.656Z,14.20
2022-10-04T15:00:04.820Z,14.10
2022-10-04T15:02:50.397Z,14.00
2022-10-04T15:05:40.282Z,14.00
2022-10-04T15:08:31.427Z,14.00
2022-10-04T15:11:03.133Z,13.90
2022-10-04T15:13:36.464Z,13.80
2022-10-04T15:16:15.259Z,13.70
2022-10-04T15:18:53.473Z,13.60
2022-10-04T15:21:40.915Z,13.60
2022-10-04T15:24:31.244Z,13.60
2022-10-04T15:27:38.946Z,13.20
2022-10-04T15:30:19.021Z,13.20
2022-10-04T15:32:54.883Z,13.20
2022-10-04T15:35:33.800Z,13.00
2022-10-04T15:38:15.425Z,13.00
2022-10-04T15:41:03.108Z,13.10
2022-10-04T15:43:44.371Z,12.90
2022-10-04T15:46:38.648Z,12.80
2022-10-04T15:49:27.699Z,12.70
2022-10-04T15:52:41.858Z,12.60
2022-10-04T15:55:21.357Z,12.60
2022-10-04T15:58:17.071Z,12.60
2022-10-04T16:00:56.307Z,12.50
2022-10-04T16:03:37.757Z,12.50
2022-10-04T16:06:10.910Z,12.50
2022-10-04T16:09:05.512Z,12.40
2022-10-04T16:12:02.698Z,12.30
2022-10-04T16:14:56.471Z,12.20
2022-10-04T16:17:50.745Z,12.10
2022-10-04T16:20:37.510Z,12.00
2022-10-04T16:23:29.424Z,12.00
2022-10-04T16:25:58.721Z,11.80
2022-10-04T16:29:14.832Z,11.80
2022-10-04T16:31:48.515Z,11.80
2022-10-04T16:34:35.151Z,11.70
2022-10-04T16:37:16.073Z,11.60
2022-10-04T16:40:00.530Z,11.60
2022-10-04T16:42:34.179Z,11.60
2022-10-04T16:45:33.218Z,11.60
2022-10-04T16:48:13.047Z,11.60
2022-10-04T16:51:26.990Z,11.70
2022-10-04T16:54:00.581Z,11.80
2022-10-04T16:56:31.841Z,11.80
2022-10-04T16:59:02.125Z,11.90
2022-10-04T17:01:54.283Z,11.90
2022-10-04T17:04:55.679Z,11.80
2022-10-04T17:07:33.990Z,11.70
2022-10-04T17:10:20.141Z,11.80
2022-10-04T17:12:56.091Z,11.70
2022-10-04T17:15:45.726Z,11.70
2022-10-04T17:18:20.418Z,11.70
2022-10-04T17:20:57.569Z,11.60
2022-10-04T17:23:53.517Z,11.60
2022-10-04T17:26:37.300Z,11.50
2022-10-04T17:29:23.312Z,11.40
2022-10-04T17:31:59.929Z,11.20
2022-10-04T17:34:44.149Z,11.20
2022-10-04T17:37:28.083Z,11.20
2022-10-04T17:40:08.978Z,11.20
2022-10-04T17:42:44.547Z,11.10
2022-10-04T17:45:30.387Z,11.10
2022-10-04T17:48:20.858Z,11.00
2022-10-04T17:51:18.387Z,11.00
2022-10-04T17:54:10.205Z,10.90
2022-10-04T17:56:44.012Z,10.90
2022-10-04T17:59:17.154Z,10.80
2022-10-04T18:01:49.561Z,10.70
2022-10-04T18:04:20.789Z,10.70
2022-10-04T18:06:55.851Z,10.60
2022-10-04T18:09:32.083Z,10.50
2022-10-04T18:12:03.897Z,10.40
2022-10-04T18:14:52.204Z,10.30
2022-10-04T18:17:33.057Z,10.20
2022-10-04T18:20:27.439Z,10.00
2022-10-04T18:23:17.338Z,9.90
2022-10-04T18:25:51.137Z,9.80
2022-10-04T18:28:23.648Z,9.70
2022-10-04T18:31:00.978Z,9.60
2022-10-04T18:33:49.231Z,9.40
2022-10-04T18:36:22.967Z,9.40
2022-10-04T18:39:05.761Z,9.30
2022-10-04T18:41:53.096Z,9.20
2022-10-04T18:44:23.943Z,9.10
2022-10-04T18:47:03.016Z,9.10
2022-10-04T18:49:51.114Z,9.00
2022-10-04T18:52:35.754Z,9.00
2022-10-04T18:55:23.562Z,8.80
2022-10-04T18:58:22.206Z,8.80
2022-10-04T19:01:17.078Z,8.70
2022-10-04T19:03:51.694Z,8.70
2022-10-04T19:06:27.923Z,8.50
2022-10-04T19:09:06.142Z,8.50
2022-10-04T19:11:45.390Z,8.40
2022-10-04T19:14:28.224Z,8.40
2022-10-04T19:17:02.624Z,8.30
2022-10-04T19:19:43.152Z,8.30
2022-10-04T19:22:30.802Z,8.30
2022-10-04T19:25:21.160Z,8.30
2022-10-04T19:27:52.047Z,8.20
2022-10-04T19:30:22.898Z,8.20
2022-10-04T19:33:00.803Z,8.10
2022-10-04T19:35:43.249Z,8.10
2022-10-04T19:38:30.218Z,8.10
2022-10-04T19:41:08.749Z,8.20
2022-10-04T19:43:47.841Z,8.20
2022-10-04T19:46:29.904Z,8.10
2022-10-04T19:48:58.346Z,8.10
2022-10-04T19:51:34.062Z,8.10
2022-10-04T19:54:14.675Z,8.00
2022-10-04T19:56:47.905Z,8.00
2022-10-04T19:59:18.789Z,8.00
2022-10-04T20:01:48.800Z,7.90
2022-10-04T20:04:38.520Z,7.90
2022-10-04T20:07:13.224Z,7.80
2022-10-04T20:10:09.436Z,7.80
2022-10-04T20:12:40.289Z,7.70
2022-10-04T20:15:46.752Z,7.70
2022-10-04T20:19:05.166Z,7.70
2022-10-04T20:21:35.462Z,7.60
2022-10-04T20:24:04.377Z,7.60
2022-10-04T20:27:07.104Z,7.60
2022-10-04T20:30:04.518Z,7.60
2022-10-04T20:32:56.084Z,7.60
2022-10-04T20:36:04.766Z,7.50
2022-10-04T20:38:59.511Z,7.50
2022-10-04T20:42:20.120Z,7.40
2022-10-04T20:44:57.162Z,7.40
2022-10-04T20:47:46.295Z,7.30
2022-10-04T20:50:26.807Z,7.30
2022-10-04T20:52:58.917Z,7.30
2022-10-04T20:55:31.691Z,7.20
2022-10-04T20:58:02.739Z,7.20
2022-10-04T21:00:37.180Z,7.20
2022-10-04T21:03:17.299Z,7.10
2022-10-04T21:05:52.521Z,7.10
2022-10-04T21:08:24.293Z,7.10
2022-10-04T21:11:20.068Z,7.10
2022-10-04T21:13:54.265Z,7.10
2022-10-04T21:16:36.739Z,7.00
2022-10-04T21:19:44.792Z,7.00
2022-10-04T21:22:37.743Z,7.00
2022-10-04T21:25:33.784Z,6.90
2022-10-04T21:28:35.414Z,6.90
2022-10-04T21:31:04.648Z,6.90
2022-10-04T21:33:33.935Z,6.90
2022-10-04T21:36:02.305Z,6.80
2022-10-04T21:38:30.665Z,6.80
2022-10-04T21:40:59.236Z,6.80
2022-10-04T21:43:27.484Z,6.80
2022-10-04T21:45:57.358Z,6.70
2022-10-04T21:48:26.087Z,6.70
2022-10-04T21:50:54.989Z,6.70
2022-10-04T21:53:23.700Z,6.70
2022-10-04T21:55:51.972Z,6.70
2022-10-04T21:58:20.254Z,6.70
2022-10-04T22:00:48.559Z,6.60
2022-10-04T22:03:18.267Z,6.60
2022-10-04T22:05:46.574Z,6.60
2022-10-04T22:08:14.930Z,6.60
2022-10-04T22:10:43.507Z,6.60
2022-10-04T22:13:11.790Z,6.50
2022-10-04T22:15:40.095Z,6.50
2022-10-04T22:18:08.568Z,6.50
2022-10-04T22:20:38.533Z,6.50
2022-10-04T22:23:14.914Z,6.40
2022-10-04T22:25:43.154Z,6.40
2022-10-04T22:28:19.896Z,6.40
2022-10-04T22:30:49.587Z,6.40
2022-10-04T22:33:29.751Z,6.40
2022-10-04T22:36:06.670Z,6.40
2022-10-04T22:38:35.043Z,6.40
2022-10-04T22:41:03.867Z,6.40
2022-10-04T22:43:32.105Z,6.40
2022-10-04T22:46:00.390Z,6.50
2022-10-04T22:48:29.106Z,6.50
2022-10-04T22:50:57.475Z,6.40
2022-10-04T22:53:28.883Z,6.40
2022-10-04T22:55:58.053Z,6.40
2022-10-04T22:58:27.947Z,6.40
2022-10-04T23:00:56.808Z,6.40
2022-10-04T23:03:31.418Z,6.40
2022-10-04T23:05:59.849Z,6.40
2022-10-04T23:08:30.257Z,6.50
2022-10-04T23:11:00.598Z,6.50
2022-10-04T23:13:29.602Z,6.50
2022-10-04T23:16:00.927Z,6.60
2022-10-04T23:18:30.526Z,6.70
2022-10-04T23:21:01.773Z,6.70
2022-10-04T23:23:32.561Z,6.70
2022-10-04T23:26:00.801Z,6.80
2022-10-04T23:28:29.183Z,6.90
2022-10-04T23:31:03.760Z,6.90
2022-10-04T23:33:32.117Z,6.90
2022-10-04T23:36:00.386Z,6.90
2022-10-04T23:38:31.474Z,7.00
2022-10-04T23:41:00.021Z,7.00
2022-10-04T23:43:31.773Z,7.00
2022-10-04T23:46:00.287Z,7.00
2022-10-04T23:48:32.060Z,7.10
2022-10-04T23:51:01.055Z,7.10
2022-10-04T23:53:32.003Z,7.10
2022-10-04T23:56:05.376Z,7.10
2022-10-04T23:58:36.922Z,7.20
